sensor_id;sensor_type;location;lat;lon;timestamp;P1;durP1;ratioP1;P2;durP2;ratioP2
55879;SDS011;41802;51.564;-1.838;2023-03-01T00:01:46;3.17;;;0.50;;
55879;SDS011;41802;51.564;-1.838;2023-03-01T00:04:13;3.22;;;0.50;;
55879;SDS011;41802;51.564;-1.838;2023-03-01T00:06:43;4.18;;;0.50;;
55879;SDS011;41802;51.564;-1.838;2023-03-01T00:09:12;3.53;;;0.60;;
55879;SDS011;41802;51.564;-1.838;2023-03-01T00:11:40;4.32;;;0.75;;
55879;SDS011;41802;51.564;-1.838;2023-03-01T00:14:07;3.90;;;0.90;;
55879;SDS011;41802;51.564;-1.838;2023-03-01T00:16:36;3.60;;;0.60;;
55879;SDS011;41802;51.564;-1.838;2023-03-01T00:19:07;5.88;;;0.90;;
55879;SDS011;41802;51.564;-1.838;2023-03-01T00:21:35;4.60;;;0.77;;
55879;SDS011;41802;51.564;-1.838;2023-03-01T00:24:04;4.78;;;0.75;;
55879;SDS011;41802;51.564;-1.838;2023-03-01T00:26:32;4.23;;;0.53;;
55879;SDS011;41802;51.564;-1.838;2023-03-01T00:29:00;7.13;;;0.57;;
55879;SDS011;41802;51.564;-1.838;2023-03-01T00:31:28;4.90;;;0.93;;
55879;SDS011;41802;51.564;-1.838;2023-03-01T00:33:57;4.25;;;0.70;;
55879;SDS011;41802;51.564;-1.838;2023-03-01T00:36:25;5.82;;;0.90;;
55879;SDS011;41802;51.564;-1.838;2023-03-01T00:38:54;4.87;;;0.80;;
55879;SDS011;41802;51.564;-1.838;2023-03-01T00:41:23;4.35;;;0.85;;
55879;SDS011;41802;51.564;-1.838;2023-03-01T00:43:53;5.15;;;1.23;;
55879;SDS011;41802;51.564;-1.838;2023-03-01T00:46:22;5.28;;;1.38;;
55879;SDS011;41802;51.564;-1.838;2023-03-01T00:48:50;7.90;;;1.70;;
55879;SDS011;41802;51.564;-1.838;2023-03-01T00:51:19;4.33;;;1.00;;
55879;SDS011;41802;51.564;-1.838;2023-03-01T00:53:47;5.35;;;1.05;;
55879;SDS011;41802;51.564;-1.838;2023-03-01T00:56:17;4.90;;;1.10;;
55879;SDS011;41802;51.564;-1.838;2023-03-01T00:58:46;6.25;;;1.08;;
55879;SDS011;41802;51.564;-1.838;2023-03-01T01:01:14;5.60;;;0.90;;
55879;SDS011;41802;51.564;-1.838;2023-03-01T01:03:47;5.37;;;0.80;;
55879;SDS011;41802;51.564;-1.838;2023-03-01T01:06:16;6.25;;;0.90;;
55879;SDS011;41802;51.564;-1.838;2023-03-01T01:08:44;5.80;;;1.27;;
55879;SDS011;41802;51.564;-1.838;2023-03-01T01:11:12;5.47;;;1.00;;
55879;SDS011;41802;51.564;-1.838;2023-03-01T01:13:40;5.13;;;0.93;;
55879;SDS011;41802;51.564;-1.838;2023-03-01T01:16:09;5.20;;;0.97;;
55879;SDS011;41802;51.564;-1.838;2023-03-01T01:18:37;6.53;;;1.02;;
55879;SDS011;41802;51.564;-1.838;2023-03-01T01:21:08;4.97;;;0.80;;
55879;SDS011;41802;51.564;-1.838;2023-03-01T01:23:36;5.88;;;1.23;;
55879;SDS011;41802;51.564;-1.838;2023-03-01T01:26:05;6.22;;;1.20;;
55879;SDS011;41802;51.564;-1.838;2023-03-01T01:28:35;5.47;;;1.10;;
55879;SDS011;41802;51.564;-1.838;2023-03-01T01:31:03;6.13;;;1.30;;
55879;SDS011;41802;51.564;-1.838;2023-03-01T01:33:33;5.03;;;1.00;;
55879;SDS011;41802;51.564;-1.838;2023-03-01T01:36:00;6.32;;;1.38;;
55879;SDS011;41802;51.564;-1.838;2023-03-01T01:38:28;5.72;;;1.50;;
55879;SDS011;41802;51.564;-1.838;2023-03-01T01:40:56;6.17;;;1.40;;
55879;SDS011;41802;51.564;-1.838;2023-03-01T01:43:26;7.35;;;1.55;;
55879;SDS011;41802;51.564;-1.838;2023-03-01T01:45:54;6.45;;;1.25;;
55879;SDS011;41802;51.564;-1.838;2023-03-01T01:48:24;9.15;;;1.63;;
55879;SDS011;41802;51.564;-1.838;2023-03-01T01:51:04;7.68;;;1.42;;
55879;SDS011;41802;51.564;-1.838;2023-03-01T01:53:31;7.37;;;1.70;;
55879;SDS011;41802;51.564;-1.838;2023-03-01T01:55:59;7.60;;;2.03;;
55879;SDS011;41802;51.564;-1.838;2023-03-01T01:58:28;7.90;;;1.90;;
55879;SDS011;41802;51.564;-1.838;2023-03-01T02:00:57;7.10;;;1.48;;
55879;SDS011;41802;51.564;-1.838;2023-03-01T02:03:24;7.38;;;1.92;;
55879;SDS011;41802;51.564;-1.838;2023-03-01T02:05:56;7.10;;;1.87;;
55879;SDS011;41802;51.564;-1.838;2023-03-01T02:08:28;9.98;;;2.00;;
55879;SDS011;41802;51.564;-1.838;2023-03-01T02:10:57;7.55;;;1.40;;
55879;SDS011;41802;51.564;-1.838;2023-03-01T02:13:26;8.35;;;1.95;;
55879;SDS011;41802;51.564;-1.838;2023-03-01T02:15:53;7.15;;;1.77;;
55879;SDS011;41802;51.564;-1.838;2023-03-01T02:18:22;8.07;;;1.40;;
55879;SDS011;41802;51.564;-1.838;2023-03-01T02:20:54;7.53;;;1.73;;
55879;SDS011;41802;51.564;-1.838;2023-03-01T02:23:25;8.98;;;1.63;;
55879;SDS011;41802;51.564;-1.838;2023-03-01T02:25:54;8.30;;;1.27;;
55879;SDS011;41802;51.564;-1.838;2023-03-01T02:28:30;6.15;;;1.13;;
55879;SDS011;41802;51.564;-1.838;2023-03-01T02:30:58;9.50;;;1.60;;
55879;SDS011;41802;51.564;-1.838;2023-03-01T02:33:43;7.30;;;1.80;;
55879;SDS011;41802;51.564;-1.838;2023-03-01T02:36:12;7.25;;;1.42;;
55879;SDS011;41802;51.564;-1.838;2023-03-01T02:38:41;7.90;;;1.75;;
55879;SDS011;41802;51.564;-1.838;2023-03-01T02:41:09;8.70;;;1.45;;
55879;SDS011;41802;51.564;-1.838;2023-03-01T02:43:39;7.83;;;1.53;;
55879;SDS011;41802;51.564;-1.838;2023-03-01T02:46:07;7.72;;;1.98;;
55879;SDS011;41802;51.564;-1.838;2023-03-01T02:48:42;11.00;;;1.77;;
55879;SDS011;41802;51.564;-1.838;2023-03-01T02:51:13;7.13;;;1.40;;
55879;SDS011;41802;51.564;-1.838;2023-03-01T02:53:45;7.05;;;1.42;;
55879;SDS011;41802;51.564;-1.838;2023-03-01T02:56:15;7.60;;;1.53;;
55879;SDS011;41802;51.564;-1.838;2023-03-01T02:58:44;7.80;;;1.67;;
55879;SDS011;41802;51.564;-1.838;2023-03-01T03:01:17;7.25;;;1.20;;
55879;SDS011;41802;51.564;-1.838;2023-03-01T03:03:44;5.93;;;1.17;;
55879;SDS011;41802;51.564;-1.838;2023-03-01T03:06:12;7.28;;;1.35;;
55879;SDS011;41802;51.564;-1.838;2023-03-01T03:08:40;7.60;;;1.43;;
55879;SDS011;41802;51.564;-1.838;2023-03-01T03:11:08;6.30;;;1.13;;
55879;SDS011;41802;51.564;-1.838;2023-03-01T03:13:36;5.65;;;0.80;;
55879;SDS011;41802;51.564;-1.838;2023-03-01T03:16:06;7.28;;;1.00;;
55879;SDS011;41802;51.564;-1.838;2023-03-01T03:18:34;6.78;;;1.10;;
55879;SDS011;41802;51.564;-1.838;2023-03-01T03:21:03;8.83;;;1.30;;
55879;SDS011;41802;51.564;-1.838;2023-03-01T03:23:36;5.80;;;0.73;;
55879;SDS011;41802;51.564;-1.838;2023-03-01T03:26:04;4.70;;;0.82;;
55879;SDS011;41802;51.564;-1.838;2023-03-01T03:28:33;5.45;;;0.90;;
55879;SDS011;41802;51.564;-1.838;2023-03-01T03:31:01;6.15;;;1.52;;
55879;SDS011;41802;51.564;-1.838;2023-03-01T03:33:31;6.50;;;1.37;;
55879;SDS011;41802;51.564;-1.838;2023-03-01T03:35:58;4.68;;;0.70;;
55879;SDS011;41802;51.564;-1.838;2023-03-01T03:38:26;5.38;;;1.10;;
55879;SDS011;41802;51.564;-1.838;2023-03-01T03:40:59;6.15;;;1.17;;
55879;SDS011;41802;51.564;-1.838;2023-03-01T03:43:32;6.22;;;1.05;;
55879;SDS011;41802;51.564;-1.838;2023-03-01T03:46:00;6.20;;;0.90;;
55879;SDS011;41802;51.564;-1.838;2023-03-01T03:48:34;5.20;;;0.70;;
55879;SDS011;41802;51.564;-1.838;2023-03-01T03:51:02;5.03;;;0.70;;
55879;SDS011;41802;51.564;-1.838;2023-03-01T03:53:31;3.85;;;0.50;;
55879;SDS011;41802;51.564;-1.838;2023-03-01T03:55:59;4.50;;;0.63;;
55879;SDS011;41802;51.564;-1.838;2023-03-01T03:58:27;5.93;;;0.40;;
55879;SDS011;41802;51.564;-1.838;2023-03-01T04:00:55;4.65;;;0.52;;
55879;SDS011;41802;51.564;-1.838;2023-03-01T04:03:24;6.60;;;0.63;;
55879;SDS011;41802;51.564;-1.838;2023-03-01T04:05:56;5.35;;;0.40;;
55879;SDS011;41802;51.564;-1.838;2023-03-01T04:08:24;3.20;;;0.60;;
55879;SDS011;41802;51.564;-1.838;2023-03-01T04:10:53;4.53;;;0.87;;
55879;SDS011;41802;51.564;-1.838;2023-03-01T04:13:24;3.25;;;0.30;;
55879;SDS011;41802;51.564;-1.838;2023-03-01T04:15:52;7.32;;;0.47;;
55879;SDS011;41802;51.564;-1.838;2023-03-01T04:18:22;2.90;;;0.20;;
55879;SDS011;41802;51.564;-1.838;2023-03-01T04:20:50;4.22;;;0.38;;
55879;SDS011;41802;51.564;-1.838;2023-03-01T04:23:23;4.83;;;0.50;;
55879;SDS011;41802;51.564;-1.838;2023-03-01T04:25:51;5.97;;;0.65;;
55879;SDS011;41802;51.564;-1.838;2023-03-01T04:28:21;2.97;;;0.35;;
55879;SDS011;41802;51.564;-1.838;2023-03-01T04:30:50;3.83;;;0.50;;
55879;SDS011;41802;51.564;-1.838;2023-03-01T04:33:19;3.50;;;0.40;;
55879;SDS011;41802;51.564;-1.838;2023-03-01T04:35:47;5.13;;;0.50;;
55879;SDS011;41802;51.564;-1.838;2023-03-01T04:38:16;4.47;;;0.40;;
55879;SDS011;41802;51.564;-1.838;2023-03-01T04:40:46;4.00;;;0.60;;
55879;SDS011;41802;51.564;-1.838;2023-03-01T04:43:14;4.28;;;0.55;;
55879;SDS011;41802;51.564;-1.838;2023-03-01T04:45:43;3.67;;;0.55;;
55879;SDS011;41802;51.564;-1.838;2023-03-01T04:48:10;5.67;;;0.70;;
55879;SDS011;41802;51.564;-1.838;2023-03-01T04:50:38;3.92;;;0.60;;
55879;SDS011;41802;51.564;-1.838;2023-03-01T04:53:05;5.28;;;0.70;;
55879;SDS011;41802;51.564;-1.838;2023-03-01T04:55:33;4.10;;;0.60;;
55879;SDS011;41802;51.564;-1.838;2023-03-01T04:58:06;7.82;;;0.70;;
55879;SDS011;41802;51.564;-1.838;2023-03-01T05:00:34;5.20;;;0.70;;
55879;SDS011;41802;51.564;-1.838;2023-03-01T05:03:01;4.82;;;0.88;;
55879;SDS011;41802;51.564;-1.838;2023-03-01T05:05:31;5.47;;;0.85;;
55879;SDS011;41802;51.564;-1.838;2023-03-01T05:08:00;4.15;;;0.80;;
55879;SDS011;41802;51.564;-1.838;2023-03-01T05:10:28;6.40;;;0.90;;
55879;SDS011;41802;51.564;-1.838;2023-03-01T05:12:57;6.73;;;0.90;;
55879;SDS011;41802;51.564;-1.838;2023-03-01T05:15:26;5.38;;;0.75;;
55879;SDS011;41802;51.564;-1.838;2023-03-01T05:17:54;6.47;;;0.70;;
55879;SDS011;41802;51.564;-1.838;2023-03-01T05:20:25;8.60;;;1.20;;
55879;SDS011;41802;51.564;-1.838;2023-03-01T05:22:54;6.03;;;0.70;;
55879;SDS011;41802;51.564;-1.838;2023-03-01T05:25:22;6.17;;;0.60;;
55879;SDS011;41802;51.564;-1.838;2023-03-01T05:27:51;5.15;;;0.80;;
55879;SDS011;41802;51.564;-1.838;2023-03-01T05:30:19;4.80;;;1.02;;
55879;SDS011;41802;51.564;-1.838;2023-03-01T05:32:50;4.25;;;0.90;;
55879;SDS011;41802;51.564;-1.838;2023-03-01T05:35:22;4.75;;;0.60;;
55879;SDS011;41802;51.564;-1.838;2023-03-01T05:37:58;6.03;;;0.77;;
55879;SDS011;41802;51.564;-1.838;2023-03-01T05:40:26;4.70;;;0.95;;
55879;SDS011;41802;51.564;-1.838;2023-03-01T05:42:54;7.03;;;1.00;;
55879;SDS011;41802;51.564;-1.838;2023-03-01T05:45:23;7.25;;;1.13;;
55879;SDS011;41802;51.564;-1.838;2023-03-01T05:47:53;9.65;;;1.15;;
55879;SDS011;41802;51.564;-1.838;2023-03-01T05:50:22;4.93;;;0.93;;
55879;SDS011;41802;51.564;-1.838;2023-03-01T05:52:57;6.40;;;1.20;;
55879;SDS011;41802;51.564;-1.838;2023-03-01T05:55:25;5.15;;;1.15;;
55879;SDS011;41802;51.564;-1.838;2023-03-01T05:57:55;5.38;;;0.82;;
55879;SDS011;41802;51.564;-1.838;2023-03-01T06:00:23;7.72;;;1.20;;
55879;SDS011;41802;51.564;-1.838;2023-03-01T06:02:50;9.47;;;1.30;;
55879;SDS011;41802;51.564;-1.838;2023-03-01T06:05:20;8.90;;;1.50;;
55879;SDS011;41802;51.564;-1.838;2023-03-01T06:07:48;9.35;;;1.17;;
55879;SDS011;41802;51.564;-1.838;2023-03-01T06:10:17;8.45;;;1.27;;
55879;SDS011;41802;51.564;-1.838;2023-03-01T06:12:45;6.45;;;1.27;;
55879;SDS011;41802;51.564;-1.838;2023-03-01T06:15:13;7.93;;;1.60;;
55879;SDS011;41802;51.564;-1.838;2023-03-01T06:17:42;7.45;;;1.42;;
55879;SDS011;41802;51.564;-1.838;2023-03-01T06:20:10;10.93;;;1.85;;
55879;SDS011;41802;51.564;-1.838;2023-03-01T06:22:41;7.75;;;1.40;;
55879;SDS011;41802;51.564;-1.838;2023-03-01T06:25:10;7.65;;;1.95;;
55879;SDS011;41802;51.564;-1.838;2023-03-01T06:27:42;7.00;;;1.80;;
55879;SDS011;41802;51.564;-1.838;2023-03-01T06:30:10;8.05;;;1.75;;
55879;SDS011;41802;51.564;-1.838;2023-03-01T06:32:38;8.23;;;1.65;;
55879;SDS011;41802;51.564;-1.838;2023-03-01T06:35:08;6.38;;;1.40;;
55879;SDS011;41802;51.564;-1.838;2023-03-01T06:37:39;6.78;;;1.65;;
55879;SDS011;41802;51.564;-1.838;2023-03-01T06:40:07;7.07;;;1.53;;
55879;SDS011;41802;51.564;-1.838;2023-03-01T06:42:35;6.90;;;1.20;;
55879;SDS011;41802;51.564;-1.838;2023-03-01T06:45:03;6.05;;;1.13;;
55879;SDS011;41802;51.564;-1.838;2023-03-01T06:47:31;6.95;;;1.08;;
55879;SDS011;41802;51.564;-1.838;2023-03-01T06:49:59;5.40;;;1.00;;
55879;SDS011;41802;51.564;-1.838;2023-03-01T06:52:27;6.77;;;1.40;;
55879;SDS011;41802;51.564;-1.838;2023-03-01T06:54:57;8.13;;;1.20;;
55879;SDS011;41802;51.564;-1.838;2023-03-01T06:57:24;7.05;;;1.25;;
55879;SDS011;41802;51.564;-1.838;2023-03-01T06:59:52;7.93;;;1.05;;
55879;SDS011;41802;51.564;-1.838;2023-03-01T07:02:20;6.13;;;1.27;;
55879;SDS011;41802;51.564;-1.838;2023-03-01T07:04:48;7.20;;;1.63;;
55879;SDS011;41802;51.564;-1.838;2023-03-01T07:07:16;12.57;;;1.10;;
55879;SDS011;41802;51.564;-1.838;2023-03-01T07:09:44;6.70;;;1.73;;
55879;SDS011;41802;51.564;-1.838;2023-03-01T07:12:13;6.78;;;1.20;;
55879;SDS011;41802;51.564;-1.838;2023-03-01T07:14:41;7.97;;;1.63;;
55879;SDS011;41802;51.564;-1.838;2023-03-01T07:17:08;7.50;;;1.30;;
55879;SDS011;41802;51.564;-1.838;2023-03-01T07:19:36;9.23;;;1.52;;
55879;SDS011;41802;51.564;-1.838;2023-03-01T07:22:03;9.30;;;1.67;;
55879;SDS011;41802;51.564;-1.838;2023-03-01T07:24:39;8.20;;;1.17;;
55879;SDS011;41802;51.564;-1.838;2023-03-01T07:27:07;8.82;;;1.27;;
55879;SDS011;41802;51.564;-1.838;2023-03-01T07:29:36;8.93;;;1.27;;
55879;SDS011;41802;51.564;-1.838;2023-03-01T07:32:04;10.50;;;1.42;;
55879;SDS011;41802;51.564;-1.838;2023-03-01T07:34:33;7.13;;;1.10;;
55879;SDS011;41802;51.564;-1.838;2023-03-01T07:37:00;6.03;;;0.60;;
55879;SDS011;41802;51.564;-1.838;2023-03-01T07:39:28;9.27;;;1.45;;
55879;SDS011;41802;51.564;-1.838;2023-03-01T07:41:55;5.90;;;0.70;;
55879;SDS011;41802;51.564;-1.838;2023-03-01T07:44:23;6.55;;;1.00;;
55879;SDS011;41802;51.564;-1.838;2023-03-01T07:46:52;6.25;;;1.00;;
55879;SDS011;41802;51.564;-1.838;2023-03-01T07:49:22;7.78;;;1.35;;
55879;SDS011;41802;51.564;-1.838;2023-03-01T07:51:50;5.90;;;0.80;;
55879;SDS011;41802;51.564;-1.838;2023-03-01T07:54:18;7.03;;;0.83;;
55879;SDS011;41802;51.564;-1.838;2023-03-01T07:56:45;5.28;;;0.82;;
55879;SDS011;41802;51.564;-1.838;2023-03-01T07:59:13;7.15;;;0.70;;
55879;SDS011;41802;51.564;-1.838;2023-03-01T08:01:41;6.57;;;0.77;;
55879;SDS011;41802;51.564;-1.838;2023-03-01T08:04:10;6.15;;;0.80;;
55879;SDS011;41802;51.564;-1.838;2023-03-01T08:06:37;5.53;;;0.80;;
55879;SDS011;41802;51.564;-1.838;2023-03-01T08:09:08;6.88;;;1.00;;
55879;SDS011;41802;51.564;-1.838;2023-03-01T08:11:36;6.38;;;1.10;;
55879;SDS011;41802;51.564;-1.838;2023-03-01T08:14:05;5.40;;;1.27;;
55879;SDS011;41802;51.564;-1.838;2023-03-01T08:16:33;7.07;;;1.05;;
55879;SDS011;41802;51.564;-1.838;2023-03-01T08:19:03;5.70;;;1.17;;
55879;SDS011;41802;51.564;-1.838;2023-03-01T08:21:32;6.80;;;0.98;;
55879;SDS011;41802;51.564;-1.838;2023-03-01T08:24:01;7.75;;;1.13;;
55879;SDS011;41802;51.564;-1.838;2023-03-01T08:26:28;7.18;;;0.85;;
55879;SDS011;41802;51.564;-1.838;2023-03-01T08:28:56;4.25;;;0.60;;
55879;SDS011;41802;51.564;-1.838;2023-03-01T08:31:26;6.00;;;0.80;;
55879;SDS011;41802;51.564;-1.838;2023-03-01T08:33:55;4.68;;;0.70;;
55879;SDS011;41802;51.564;-1.838;2023-03-01T08:36:23;5.55;;;0.77;;
55879;SDS011;41802;51.564;-1.838;2023-03-01T08:38:53;7.13;;;0.80;;
55879;SDS011;41802;51.564;-1.838;2023-03-01T08:41:22;5.85;;;0.80;;
55879;SDS011;41802;51.564;-1.838;2023-03-01T08:43:50;4.50;;;0.80;;
55879;SDS011;41802;51.564;-1.838;2023-03-01T08:46:19;5.72;;;0.90;;
55879;SDS011;41802;51.564;-1.838;2023-03-01T08:48:47;6.35;;;0.80;;
55879;SDS011;41802;51.564;-1.838;2023-03-01T08:51:16;5.50;;;0.85;;
55879;SDS011;41802;51.564;-1.838;2023-03-01T08:53:44;7.07;;;1.00;;
55879;SDS011;41802;51.564;-1.838;2023-03-01T08:56:14;8.10;;;1.33;;
55879;SDS011;41802;51.564;-1.838;2023-03-01T08:58:43;5.45;;;0.63;;
55879;SDS011;41802;51.564;-1.838;2023-03-01T09:01:15;6.28;;;1.85;;
55879;SDS011;41802;51.564;-1.838;2023-03-01T09:03:43;7.15;;;0.85;;
55879;SDS011;41802;51.564;-1.838;2023-03-01T09:06:11;7.90;;;1.30;;
55879;SDS011;41802;51.564;-1.838;2023-03-01T09:08:40;5.60;;;0.80;;
55879;SDS011;41802;51.564;-1.838;2023-03-01T09:11:09;4.93;;;0.80;;
55879;SDS011;41802;51.564;-1.838;2023-03-01T09:13:39;6.38;;;0.88;;
55879;SDS011;41802;51.564;-1.838;2023-03-01T09:16:10;5.93;;;0.98;;
55879;SDS011;41802;51.564;-1.838;2023-03-01T09:18:38;5.57;;;1.10;;
55879;SDS011;41802;51.564;-1.838;2023-03-01T09:21:07;9.30;;;1.50;;
55879;SDS011;41802;51.564;-1.838;2023-03-01T09:23:45;5.35;;;0.80;;
55879;SDS011;41802;51.564;-1.838;2023-03-01T09:26:15;4.60;;;0.80;;
55879;SDS011;41802;51.564;-1.838;2023-03-01T09:28:48;8.10;;;0.90;;
55879;SDS011;41802;51.564;-1.838;2023-03-01T09:31:16;4.35;;;0.93;;
55879;SDS011;41802;51.564;-1.838;2023-03-01T09:33:45;5.87;;;0.77;;
55879;SDS011;41802;51.564;-1.838;2023-03-01T09:36:14;5.50;;;0.85;;
55879;SDS011;41802;51.564;-1.838;2023-03-01T09:38:47;8.38;;;0.90;;
55879;SDS011;41802;51.564;-1.838;2023-03-01T09:41:29;4.32;;;0.70;;
55879;SDS011;41802;51.564;-1.838;2023-03-01T09:44:03;6.25;;;0.77;;
55879;SDS011;41802;51.564;-1.838;2023-03-01T09:46:40;6.87;;;1.07;;
55879;SDS011;41802;51.564;-1.838;2023-03-01T09:49:10;6.90;;;0.70;;
55879;SDS011;41802;51.564;-1.838;2023-03-01T09:51:38;5.13;;;0.60;;
55879;SDS011;41802;51.564;-1.838;2023-03-01T09:54:05;4.85;;;0.43;;
55879;SDS011;41802;51.564;-1.838;2023-03-01T09:56:36;4.32;;;0.60;;
55879;SDS011;41802;51.564;-1.838;2023-03-01T09:59:08;4.50;;;1.00;;
55879;SDS011;41802;51.564;-1.838;2023-03-01T10:01:41;4.78;;;0.40;;
55879;SDS011;41802;51.564;-1.838;2023-03-01T10:04:12;5.45;;;0.70;;
55879;SDS011;41802;51.564;-1.838;2023-03-01T10:06:48;4.00;;;0.40;;
55879;SDS011;41802;51.564;-1.838;2023-03-01T10:09:26;4.93;;;0.60;;
55879;SDS011;41802;51.564;-1.838;2023-03-01T10:11:57;5.60;;;0.53;;
55879;SDS011;41802;51.564;-1.838;2023-03-01T10:14:32;4.35;;;0.40;;
55879;SDS011;41802;51.564;-1.838;2023-03-01T10:17:01;5.40;;;0.70;;
55879;SDS011;41802;51.564;-1.838;2023-03-01T10:19:31;5.50;;;0.50;;
55879;SDS011;41802;51.564;-1.838;2023-03-01T10:22:00;6.05;;;0.80;;
55879;SDS011;41802;51.564;-1.838;2023-03-01T10:24:30;4.03;;;0.50;;
55879;SDS011;41802;51.564;-1.838;2023-03-01T10:27:00;3.42;;;0.52;;
55879;SDS011;41802;51.564;-1.838;2023-03-01T10:29:34;5.20;;;0.80;;
55879;SDS011;41802;51.564;-1.838;2023-03-01T10:32:04;6.97;;;0.70;;
55879;SDS011;41802;51.564;-1.838;2023-03-01T10:34:34;3.92;;;0.40;;
55879;SDS011;41802;51.564;-1.838;2023-03-01T10:37:08;3.80;;;0.33;;
55879;SDS011;41802;51.564;-1.838;2023-03-01T10:39:36;4.82;;;0.40;;
55879;SDS011;41802;51.564;-1.838;2023-03-01T10:42:05;4.60;;;0.45;;
55879;SDS011;41802;51.564;-1.838;2023-03-01T10:44:48;3.80;;;0.30;;
55879;SDS011;41802;51.564;-1.838;2023-03-01T10:47:17;6.85;;;0.45;;
55879;SDS011;41802;51.564;-1.838;2023-03-01T10:49:56;5.83;;;0.67;;
55879;SDS011;41802;51.564;-1.838;2023-03-01T10:52:25;4.65;;;0.50;;
55879;SDS011;41802;51.564;-1.838;2023-03-01T10:54:54;3.78;;;0.50;;
55879;SDS011;41802;51.564;-1.838;2023-03-01T10:57:30;5.20;;;0.52;;
55879;SDS011;41802;51.564;-1.838;2023-03-01T11:03:03;6.50;;;0.70;;
55879;SDS011;41802;51.564;-1.838;2023-03-01T11:05:36;6.20;;;0.65;;
55879;SDS011;41802;51.564;-1.838;2023-03-01T11:08:04;4.57;;;0.57;;
55879;SDS011;41802;51.564;-1.838;2023-03-01T11:10:33;4.47;;;0.60;;
55879;SDS011;41802;51.564;-1.838;2023-03-01T11:13:08;7.75;;;0.70;;
55879;SDS011;41802;51.564;-1.838;2023-03-01T11:15:36;6.37;;;1.07;;
55879;SDS011;41802;51.564;-1.838;2023-03-01T11:18:05;4.60;;;1.05;;
55879;SDS011;41802;51.564;-1.838;2023-03-01T11:20:45;6.53;;;0.88;;
55879;SDS011;41802;51.564;-1.838;2023-03-01T11:23:14;4.53;;;0.88;;
55879;SDS011;41802;51.564;-1.838;2023-03-01T11:25:43;5.47;;;0.60;;
55879;SDS011;41802;51.564;-1.838;2023-03-01T11:28:12;5.70;;;0.80;;
55879;SDS011;41802;51.564;-1.838;2023-03-01T11:30:42;5.18;;;0.60;;
55879;SDS011;41802;51.564;-1.838;2023-03-01T11:33:35;4.47;;;0.60;;
55879;SDS011;41802;51.564;-1.838;2023-03-01T11:36:06;4.63;;;0.70;;
55879;SDS011;41802;51.564;-1.838;2023-03-01T11:38:35;5.13;;;0.52;;
55879;SDS011;41802;51.564;-1.838;2023-03-01T11:41:05;3.40;;;0.60;;
55879;SDS011;41802;51.564;-1.838;2023-03-01T11:43:35;4.40;;;0.68;;
55879;SDS011;41802;51.564;-1.838;2023-03-01T11:46:11;4.50;;;0.68;;
55879;SDS011;41802;51.564;-1.838;2023-03-01T11:48:52;3.83;;;0.80;;
55879;SDS011;41802;51.564;-1.838;2023-03-01T11:51:33;4.50;;;0.63;;
55879;SDS011;41802;51.564;-1.838;2023-03-01T11:54:05;5.27;;;0.87;;
55879;SDS011;41802;51.564;-1.838;2023-03-01T11:56:34;8.15;;;1.08;;
55879;SDS011;41802;51.564;-1.838;2023-03-01T11:59:06;4.50;;;0.90;;
55879;SDS011;41802;51.564;-1.838;2023-03-01T12:01:43;5.40;;;0.88;;
55879;SDS011;41802;51.564;-1.838;2023-03-01T12:04:28;5.70;;;1.00;;
55879;SDS011;41802;51.564;-1.838;2023-03-01T12:07:00;4.27;;;0.70;;
55879;SDS011;41802;51.564;-1.838;2023-03-01T12:09:36;5.88;;;1.10;;
55879;SDS011;41802;51.564;-1.838;2023-03-01T12:12:25;4.80;;;0.80;;
55879;SDS011;41802;51.564;-1.838;2023-03-01T12:14:59;4.60;;;0.98;;
55879;SDS011;41802;51.564;-1.838;2023-03-01T12:17:35;6.43;;;0.80;;
55879;SDS011;41802;51.564;-1.838;2023-03-01T12:20:14;6.13;;;1.10;;
55879;SDS011;41802;51.564;-1.838;2023-03-01T12:22:48;4.78;;;0.80;;
55879;SDS011;41802;51.564;-1.838;2023-03-01T12:25:22;6.40;;;1.38;;
55879;SDS011;41802;51.564;-1.838;2023-03-01T12:30:49;5.50;;;0.95;;
55879;SDS011;41802;51.564;-1.838;2023-03-01T12:33:21;7.77;;;1.10;;
55879;SDS011;41802;51.564;-1.838;2023-03-01T12:35:57;5.60;;;0.95;;
55879;SDS011;41802;51.564;-1.838;2023-03-01T12:38:32;5.82;;;1.35;;
55879;SDS011;41802;51.564;-1.838;2023-03-01T12:41:10;7.75;;;1.48;;
55879;SDS011;41802;51.564;-1.838;2023-03-01T12:43:42;5.75;;;1.10;;
55879;SDS011;41802;51.564;-1.838;2023-03-01T12:46:19;4.57;;;0.97;;
55879;SDS011;41802;51.564;-1.838;2023-03-01T12:48:51;4.45;;;1.02;;
55879;SDS011;41802;51.564;-1.838;2023-03-01T12:51:24;4.85;;;1.05;;
55879;SDS011;41802;51.564;-1.838;2023-03-01T12:53:54;6.45;;;0.80;;
55879;SDS011;41802;51.564;-1.838;2023-03-01T12:56:23;4.32;;;0.95;;
55879;SDS011;41802;51.564;-1.838;2023-03-01T12:58:53;4.57;;;0.90;;
55879;SDS011;41802;51.564;-1.838;2023-03-01T13:01:28;5.00;;;1.25;;
55879;SDS011;41802;51.564;-1.838;2023-03-01T13:04:02;6.10;;;0.85;;
55879;SDS011;41802;51.564;-1.838;2023-03-01T13:06:35;5.05;;;0.75;;
55879;SDS011;41802;51.564;-1.838;2023-03-01T13:09:11;6.00;;;1.00;;
55879;SDS011;41802;51.564;-1.838;2023-03-01T13:11:43;3.80;;;0.63;;
55879;SDS011;41802;51.564;-1.838;2023-03-01T13:17:03;4.78;;;0.90;;
55879;SDS011;41802;51.564;-1.838;2023-03-01T13:19:31;5.72;;;0.98;;
55879;SDS011;41802;51.564;-1.838;2023-03-01T13:22:24;5.30;;;0.90;;
55879;SDS011;41802;51.564;-1.838;2023-03-01T13:24:50;4.73;;;0.83;;
55879;SDS011;41802;51.564;-1.838;2023-03-01T13:27:28;6.25;;;1.00;;
55879;SDS011;41802;51.564;-1.838;2023-03-01T13:29:57;5.07;;;1.00;;
55879;SDS011;41802;51.564;-1.838;2023-03-01T13:32:26;4.47;;;0.65;;
55879;SDS011;41802;51.564;-1.838;2023-03-01T13:37:53;5.70;;;1.00;;
55879;SDS011;41802;51.564;-1.838;2023-03-01T13:40:59;5.60;;;0.90;;
55879;SDS011;41802;51.564;-1.838;2023-03-01T13:43:28;4.90;;;0.70;;
55879;SDS011;41802;51.564;-1.838;2023-03-01T13:45:57;3.63;;;0.50;;
55879;SDS011;41802;51.564;-1.838;2023-03-01T13:48:26;3.13;;;0.35;;
55879;SDS011;41802;51.564;-1.838;2023-03-01T13:50:55;5.03;;;0.60;;
55879;SDS011;41802;51.564;-1.838;2023-03-01T13:53:26;5.07;;;0.50;;
55879;SDS011;41802;51.564;-1.838;2023-03-01T13:55:56;4.38;;;0.60;;
55879;SDS011;41802;51.564;-1.838;2023-03-01T13:58:26;3.72;;;0.43;;
55879;SDS011;41802;51.564;-1.838;2023-03-01T14:00:58;4.72;;;0.75;;
55879;SDS011;41802;51.564;-1.838;2023-03-01T14:03:26;4.33;;;0.60;;
55879;SDS011;41802;51.564;-1.838;2023-03-01T14:05:58;3.63;;;0.60;;
55879;SDS011;41802;51.564;-1.838;2023-03-01T14:08:41;3.83;;;0.63;;
55879;SDS011;41802;51.564;-1.838;2023-03-01T14:14:03;3.83;;;0.43;;
55879;SDS011;41802;51.564;-1.838;2023-03-01T14:16:40;4.60;;;0.57;;
55879;SDS011;41802;51.564;-1.838;2023-03-01T14:19:15;4.05;;;0.60;;
55879;SDS011;41802;51.564;-1.838;2023-03-01T14:22:02;6.40;;;0.52;;
55879;SDS011;41802;51.564;-1.838;2023-03-01T14:24:34;4.20;;;0.65;;
55879;SDS011;41802;51.564;-1.838;2023-03-01T14:27:04;5.43;;;0.60;;
55879;SDS011;41802;51.564;-1.838;2023-03-01T14:29:37;3.57;;;0.47;;
55879;SDS011;41802;51.564;-1.838;2023-03-01T14:32:09;4.15;;;0.68;;
55879;SDS011;41802;51.564;-1.838;2023-03-01T14:34:42;4.40;;;0.50;;
55879;SDS011;41802;51.564;-1.838;2023-03-01T14:37:10;4.07;;;0.50;;
55879;SDS011;41802;51.564;-1.838;2023-03-01T14:39:39;3.47;;;0.60;;
55879;SDS011;41802;51.564;-1.838;2023-03-01T14:42:07;4.03;;;0.50;;
55879;SDS011;41802;51.564;-1.838;2023-03-01T14:44:41;3.30;;;0.40;;
55879;SDS011;41802;51.564;-1.838;2023-03-01T14:47:11;3.67;;;0.40;;
55879;SDS011;41802;51.564;-1.838;2023-03-01T14:49:39;3.97;;;0.40;;
55879;SDS011;41802;51.564;-1.838;2023-03-01T14:52:22;4.28;;;0.50;;
55879;SDS011;41802;51.564;-1.838;2023-03-01T14:54:54;3.20;;;0.53;;
55879;SDS011;41802;51.564;-1.838;2023-03-01T14:57:22;4.32;;;0.50;;
55879;SDS011;41802;51.564;-1.838;2023-03-01T14:59:53;5.22;;;0.55;;
55879;SDS011;41802;51.564;-1.838;2023-03-01T15:02:22;4.60;;;0.52;;
55879;SDS011;41802;51.564;-1.838;2023-03-01T15:04:52;3.17;;;0.45;;
55879;SDS011;41802;51.564;-1.838;2023-03-01T15:07:23;2.77;;;0.40;;